Time;durP1;ratioP1;P1;durP2;ratioP2;P2;SDS_P1;SDS_P2;PMS_P1;PMS_P2;Temp;Humidity;BMP_temperature;BMP_pressure;BME280_temperature;BME280_humidity;BME280_pressure;Samples;Min_cycle;Max_cycle;Signal;HPM_P1;HPM_P2
2023/03/24 11:23:43;;;;;;;9.23;1.80;;;13.70;94.50;;;;;;5160575;27;20345;-60
2023/03/24 11:26:15;;;;;;;7.07;1.60;;;13.50;97.00;;;;;;5142517;27;20043;-60
2023/03/24 11:28:55;;;;;;;5.15;1.77;;;13.50;97.60;;;;;;5117770;27;20023;-61
2023/03/24 11:31:30;;;;;;;6.68;1.77;;;13.50;99.90;;;;;;5138801;27;20023;-60
2023/03/24 11:34:00;;;;;;;9.05;2.40;;;13.60;99.90;;;;;;5147587;27;20110;-61
2023/03/24 11:36:34;;;;;;;6.32;2.20;;;13.60;99.90;;;;;;5150645;27;20015;-60
2023/03/24 11:39:08;;;;;;;6.80;2.33;;;13.70;99.90;;;;;;5150366;27;20019;-60
2023/03/24 11:41:36;;;;;;;10.73;3.42;;;13.70;99.90;;;;;;5143810;27;20032;-60
2023/03/24 11:44:21;;;;;;;10.90;2.30;;;13.70;99.90;;;;;;5138349;27;20019;-60
2023/03/24 11:46:59;;;;;;;7.95;1.95;;;13.80;99.90;;;;;;5142235;27;20023;-60
2023/03/24 11:49:30;;;;;;;4.35;1.70;;;13.90;99.90;;;;;;5113259;28;20035;-60
2023/03/24 11:51:56;;;;;;;2.97;1.42;;;14.00;99.90;;;;;;5128987;28;20495;-60
2023/03/24 11:54:35;;;;;;;2.67;1.25;;;14.10;99.90;;;;;;5127279;28;20076;-59
2023/03/24 11:57:10;;;;;;;4.30;1.00;;;14.20;99.90;;;;;;5143187;27;20471;-60
2023/03/24 11:59:51;;;;;;;2.50;0.77;;;14.20;99.90;;;;;;5149720;27;20030;-60
2023/03/24 12:02:45;;;;;;;3.05;0.80;;;14.20;99.90;;;;;;5137401;27;20073;-62
2023/03/24 12:05:38;;;;;;;3.42;0.93;;;14.30;99.90;;;;;;5112193;27;20102;-60
2023/03/24 12:08:18;;;;;;;2.80;0.85;;;14.50;99.90;;;;;;5131617;27;20035;-60
2023/03/24 12:11:17;;;;;;;4.93;1.30;;;14.70;99.90;;;;;;5150123;27;20044;-60
2023/03/24 12:13:50;;;;;;;3.65;1.40;;;14.80;99.70;;;;;;5149423;27;20031;-60
2023/03/24 12:16:22;;;;;;;3.90;1.23;;;14.90;99.90;;;;;;5127919;27;20051;-60
2023/03/24 12:19:08;;;;;;;4.30;1.50;;;14.80;99.90;;;;;;5120313;27;20360;-60
2023/03/24 12:22:05;;;;;;;4.03;1.30;;;14.60;99.90;;;;;;5128694;28;20123;-60
2023/03/24 12:24:31;;;;;;;4.15;1.60;;;14.20;99.90;;;;;;5124498;27;20038;-60
2023/03/24 12:27:00;;;;;;;3.15;1.30;;;13.70;99.90;;;;;;5129953;27;20027;-60
2023/03/24 12:29:26;;;;;;;2.28;1.20;;;12.90;99.90;;;;;;5130436;27;20054;-61
2023/03/24 12:32:29;;;;;;;4.97;1.73;;;11.90;99.90;;;;;;5144759;27;20105;-60
2023/03/24 12:35:22;;;;;;;6.43;1.50;;;11.10;99.90;;;;;;5101316;27;20035;-61
2023/03/24 12:38:29;;;;;;;2.95;1.30;;;10.70;99.90;;;;;;5126218;27;20036;-61
2023/03/24 12:41:34;;;;;;;1.63;1.10;;;10.60;99.90;;;;;;5114517;27;20039;-61
2023/03/24 12:44:22;;;;;;;5.82;1.25;;;10.80;99.90;;;;;;5116273;27;20023;-61
2023/03/24 12:46:50;;;;;;;4.40;1.10;;;10.90;99.90;;;;;;5115391;28;20391;-60
2023/03/24 12:49:40;;;;;;;1.40;0.95;;;10.90;99.90;;;;;;5118772;27;20020;-63
2023/03/24 12:52:19;;;;;;;5.38;1.42;;;11.00;99.90;;;;;;5122756;27;20023;-63
2023/03/24 12:54:52;;;;;;;2.88;1.15;;;11.10;99.90;;;;;;5128083;27;20024;-61
2023/03/24 12:57:20;;;;;;;2.42;1.48;;;11.10;99.90;;;;;;5114321;28;20024;-62
2023/03/24 13:00:11;;;;;;;3.78;1.48;;;11.20;99.90;;;;;;5115702;28;20035;-61
2023/03/24 13:02:44;;;;;;;3.33;1.38;;;11.40;99.90;;;;;;5096162;28;20035;-61
2023/03/24 13:05:31;;;;;;;2.72;1.00;;;11.50;99.90;;;;;;5114385;28;20076;-61
2023/03/24 13:08:02;;;;;;;4.22;1.58;;;11.70;99.90;;;;;;5123717;27;20019;-61
2023/03/24 13:10:31;;;;;;;2.80;1.35;;;11.90;99.90;;;;;;5115546;27;20034;-62
2023/03/24 13:13:09;;;;;;;5.15;1.52;;;12.10;99.90;;;;;;5103024;27;20019;-61
2023/03/24 13:15:42;;;;;;;4.90;1.52;;;12.30;99.90;;;;;;5102273;28;20035;-61
2023/03/24 13:18:10;;;;;;;2.28;1.50;;;12.40;99.90;;;;;;5117062;27;20031;-60
2023/03/24 13:20:40;;;;;;;5.13;1.70;;;12.50;99.90;;;;;;5123013;27;20066;-59
2023/03/24 13:23:37;;;;;;;5.53;1.55;;;12.60;99.90;;;;;;5129153;27;20074;-60
2023/03/24 13:26:21;;;;;;;3.97;1.80;;;12.70;99.90;;;;;;5096401;27;20533;-60
2023/03/24 13:29:11;;;;;;;5.75;2.00;;;12.70;99.90;;;;;;5126004;27;20019;-59
2023/03/24 13:31:45;;;;;;;6.72;1.77;;;12.70;99.90;;;;;;5121723;27;20423;-61
2023/03/24 13:34:24;;;;;;;6.80;2.15;;;12.70;99.90;;;;;;5132819;27;20459;-60
2023/03/24 13:36:55;;;;;;;6.43;2.13;;;12.60;99.90;;;;;;5131025;27;20033;-60
2023/03/24 13:39:24;;;;;;;5.05;1.80;;;12.50;99.90;;;;;;5113821;27;20011;-60
2023/03/24 13:41:52;;;;;;;4.90;1.98;;;12.40;99.90;;;;;;5124510;27;20043;-60
2023/03/24 13:44:29;;;;;;;4.40;1.88;;;12.40;99.90;;;;;;5131123;27;20103;-60
2023/03/24 13:47:14;;;;;;;5.13;1.90;;;12.30;99.90;;;;;;5126182;27;20548;-59
2023/03/24 13:49:44;;;;;;;6.10;2.47;;;12.20;99.90;;;;;;5131349;27;20031;-59
2023/03/24 13:52:35;;;;;;;4.53;1.90;;;12.20;99.90;;;;;;5124589;27;20019;-61
2023/03/24 13:55:08;;;;;;;1.60;1.27;;;12.10;99.90;;;;;;5121139;27;20110;-60
2023/03/24 13:57:34;;;;;;;5.35;1.52;;;12.00;99.90;;;;;;5115297;27;20058;-59
2023/03/24 14:00:10;;;;;;;2.40;1.40;;;11.80;99.90;;;;;;5111693;27;20051;-59
2023/03/24 14:02:51;;;;;;;2.20;1.80;;;11.80;99.90;;;;;;5130632;27;20070;-60
2023/03/24 14:05:33;;;;;;;2.38;1.48;;;11.70;99.90;;;;;;5094953;27;20528;-59
2023/03/24 14:08:04;;;;;;;5.60;1.60;;;11.70;99.90;;;;;;5117233;27;20023;-61
2023/03/24 14:10:43;;;;;;;2.00;1.20;;;11.70;99.90;;;;;;5129200;27;20023;-60
2023/03/24 14:13:11;;;;;;;4.57;1.67;;;11.60;99.90;;;;;;5113611;27;20760;-60
2023/03/24 14:15:43;;;;;;;4.63;1.40;;;11.70;99.90;;;;;;5127791;27;20035;-59
2023/03/24 14:18:24;;;;;;;2.75;1.23;;;11.60;99.90;;;;;;5129511;27;20479;-59
2023/03/24 14:20:56;;;;;;;2.42;1.35;;;11.80;99.90;;;;;;5112876;28;20030;-59
2023/03/24 14:23:37;;;;;;;2.78;1.15;;;11.90;99.90;;;;;;5094310;27;20031;-59
2023/03/24 14:26:04;;;;;;;;;;;11.90;99.90;;;;;;5117684;27;20031;-58
2023/03/24 14:28:38;;;;;;;2.00;0.90;;;11.90;99.90;;;;;;5120902;27;19994;-58
2023/03/24 14:31:16;;;;;;;4.68;1.42;;;11.80;99.90;;;;;;5133231;27;20085;-59
2023/03/24 14:34:09;;;;;;;2.70;1.15;;;11.80;99.90;;;;;;5130434;27;20031;-59
2023/03/24 14:36:40;;;;;;;2.17;1.42;;;11.70;99.90;;;;;;5118706;27;20099;-58
2023/03/24 14:39:10;;;;;;;2.15;1.00;;;11.70;99.90;;;;;;5129416;27;20075;-57
2023/03/24 14:41:39;;;;;;;1.98;1.00;;;11.70;99.90;;;;;;5119852;27;20067;-58
2023/03/24 14:44:05;;;;;;;2.47;1.23;;;11.60;99.90;;;;;;5111152;28;20024;-59
2023/03/24 14:46:37;;;;;;;4.20;1.25;;;11.60;99.90;;;;;;5112919;28;20027;-58
2023/03/24 14:49:08;;;;;;;2.08;0.85;;;11.50;99.90;;;;;;5112804;28;20041;-58
2023/03/24 14:51:56;;;;;;;2.58;1.30;;;11.50;99.90;;;;;;5112051;28;20102;-59
2023/03/24 14:54:37;;;;;;;4.28;1.50;;;11.50;99.90;;;;;;5111874;28;20494;-59
2023/03/24 14:57:03;;;;;;;;;;;11.50;99.90;;;;;;5112186;28;20345;-58
2023/03/24 14:59:50;;;;;;;4.78;1.30;;;11.80;99.90;;;;;;5112446;28;20352;-59
2023/03/24 15:02:26;;;;;;;3.55;1.30;;;12.00;99.90;;;;;;5111826;28;20031;-59
2023/03/24 15:05:21;;;;;;;2.40;1.40;;;12.10;99.90;;;;;;5111549;28;20019;-58
2023/03/24 15:08:07;;;;;;;1.73;1.25;;;12.10;99.90;;;;;;5113048;27;20023;-59
2023/03/24 15:10:40;;;;;;;4.80;1.48;;;12.00;99.90;;;;;;5131589;27;20027;-58
2023/03/24 15:13:33;;;;;;;2.58;1.20;;;11.90;99.90;;;;;;5132263;27;20022;-58
2023/03/24 15:16:00;;;;;;;4.57;1.83;;;11.80;99.90;;;;;;5132701;27;20054;-59
2023/03/24 15:18:26;;;;;;;3.92;1.25;;;11.90;99.90;;;;;;5131883;27;20064;-59
2023/03/24 15:20:52;;;;;;;3.47;1.23;;;11.90;99.90;;;;;;5132796;28;20556;-59
2023/03/24 15:23:24;;;;;;;3.13;1.00;;;12.00;99.90;;;;;;5113781;28;20100;-59
2023/03/24 15:25:50;;;;;;;1.45;0.90;;;12.10;99.90;;;;;;5132274;28;20027;-59
2023/03/24 15:28:35;;;;;;;1.20;0.93;;;12.20;99.90;;;;;;5113995;28;20015;-59
2023/03/24 15:31:01;;;;;;;2.40;0.75;;;12.40;99.90;;;;;;5132855;28;20031;-59
2023/03/24 15:33:29;;;;;;;3.42;1.00;;;12.70;99.90;;;;;;5131592;28;20527;-59
2023/03/24 15:35:57;;;;;;;2.03;0.98;;;13.30;99.90;;;;;;5132556;28;20023;-59
2023/03/24 15:38:29;;;;;;;3.30;1.15;;;13.80;99.90;;;;;;5131721;28;20025;-58
2023/03/24 15:41:02;;;;;;;5.57;1.30;;;14.30;99.90;;;;;;5131979;28;20127;-59
2023/03/24 15:43:27;;;;;;;2.42;0.82;;;14.80;99.90;;;;;;5131156;28;20494;-60
2023/03/24 15:45:55;;;;;;;1.80;1.08;;;15.20;99.90;;;;;;5130243;28;20020;-59
2023/03/24 15:48:24;;;;;;;2.47;0.68;;;15.60;99.90;;;;;;5122047;28;20034;-59
2023/03/24 15:51:10;;;;;;;1.88;0.75;;;15.40;99.90;;;;;;5116838;28;20019;-59
2023/03/24 15:53:43;;;;;;;3.10;1.00;;;15.00;99.90;;;;;;5130038;28;20038;-60
2023/03/24 15:56:16;;;;;;;1.70;0.70;;;14.60;99.90;;;;;;5132465;28;20011;-60
2023/03/24 15:59:06;;;;;;;4.00;0.88;;;14.30;99.90;;;;;;5132684;28;20034;-59
2023/03/24 16:01:37;;;;;;;3.67;0.70;;;14.10;99.90;;;;;;5131941;28;20086;-59
2023/03/24 16:04:22;;;;;;;1.90;0.75;;;14.10;99.90;;;;;;5132134;28;20023;-60
2023/03/24 16:06:50;;;;;;;2.58;0.70;;;14.20;99.90;;;;;;5123469;28;20381;-60
2023/03/24 16:09:25;;;;;;;8.02;1.25;;;14.10;99.90;;;;;;5119052;27;20371;-60
2023/03/24 16:11:51;;;;;;;3.13;1.00;;;14.00;99.90;;;;;;5115272;28;20495;-60
2023/03/24 16:14:26;;;;;;;3.25;1.20;;;13.80;99.90;;;;;;5114493;28;20032;-59
2023/03/24 16:16:57;;;;;;;2.15;0.77;;;13.70;99.90;;;;;;5115462;27;20028;-60
2023/03/24 16:19:24;;;;;;;3.60;0.90;;;13.80;99.90;;;;;;5135471;27;20031;-59
2023/03/24 16:21:49;;;;;;;2.55;1.00;;;14.00;99.90;;;;;;5127988;27;20086;-59
2023/03/24 16:24:15;;;;;;;1.73;0.77;;;14.60;99.90;;;;;;5126369;27;20123;-60
2023/03/24 16:26:42;;;;;;;4.43;1.00;;;15.30;99.90;;;;;;5129047;27;20023;-59
2023/03/24 16:29:15;;;;;;;4.03;0.85;;;15.50;99.90;;;;;;5134656;27;20022;-62
2023/03/24 16:31:42;;;;;;;3.00;1.17;;;15.50;99.90;;;;;;5120666;27;20035;-60
2023/03/24 16:34:09;;;;;;;5.00;1.00;;;15.20;99.90;;;;;;5114385;28;20041;-59
2023/03/24 16:36:35;;;;;;;2.55;0.95;;;14.90;99.90;;;;;;5114336;27;20468;-61
2023/03/24 16:39:01;;;;;;;4.53;1.30;;;14.60;99.90;;;;;;5115226;28;20024;-60
2023/03/24 16:41:28;;;;;;;5.70;1.70;;;14.50;99.90;;;;;;5115979;27;20031;-59
2023/03/24 16:43:54;;;;;;;3.67;1.17;;;14.70;99.90;;;;;;5115172;27;20032;-59
2023/03/24 16:46:24;;;;;;;1.80;1.02;;;14.70;99.90;;;;;;5127862;27;20062;-59
2023/03/24 16:48:50;;;;;;;2.33;1.00;;;14.60;99.90;;;;;;5135880;27;20019;-59
2023/03/24 16:51:15;;;;;;;3.45;1.20;;;14.40;99.90;;;;;;5134646;27;20030;-59
2023/03/24 16:53:43;;;;;;;3.05;1.10;;;14.00;99.90;;;;;;5131957;27;20663;-59
2023/03/24 16:56:11;;;;;;;3.28;1.30;;;13.90;99.90;;;;;;5128442;27;20023;-61
2023/03/24 16:58:37;;;;;;;3.85;1.40;;;13.70;99.90;;;;;;5135280;27;20019;-59
2023/03/24 17:01:28;;;;;;;3.38;1.70;;;13.60;99.90;;;;;;5116983;27;20075;-58
2023/03/24 17:03:54;;;;;;;3.65;1.30;;;13.60;99.90;;;;;;5134428;27;20407;-59
2023/03/24 17:06:21;;;;;;;3.28;1.40;;;13.60;99.90;;;;;;5132870;27;20023;-59
2023/03/24 17:08:46;;;;;;;3.88;1.33;;;13.90;99.90;;;;;;5125410;27;20584;-59
2023/03/24 17:11:13;;;;;;;3.45;1.50;;;13.80;99.90;;;;;;5113764;28;20103;-59
2023/03/24 17:13:39;;;;;;;11.23;3.72;;;13.70;99.90;;;;;;5120573;27;20034;-57
2023/03/24 17:16:09;;;;;;;53.30;16.70;;;13.50;99.90;;;;;;5134573;27;20023;-59
2023/03/24 17:18:38;;;;;;;40.33;15.95;;;13.30;99.90;;;;;;5133915;27;20023;-59
2023/03/24 17:21:15;;;;;;;15.60;6.50;;;13.10;99.90;;;;;;5115809;27;20023;-58
2023/03/24 17:23:42;;;;;;;8.98;3.55;;;13.00;99.90;;;;;;5113789;28;20035;-59
2023/03/24 17:26:08;;;;;;;9.07;2.80;;;12.90;99.90;;;;;;5113167;28;20038;-59
2023/03/24 17:28:33;;;;;;;4.75;2.50;;;12.90;99.90;;;;;;5113859;28;20354;-58
2023/03/24 17:30:59;;;;;;;5.07;2.30;;;12.80;99.90;;;;;;5113747;28;20020;-58
2023/03/24 17:33:25;;;;;;;5.32;1.60;;;12.80;99.90;;;;;;5112569;28;20495;-58
2023/03/24 17:35:51;;;;;;;3.58;1.92;;;12.70;99.90;;;;;;5114771;27;20128;-59
2023/03/24 17:38:17;;;;;;;5.97;2.47;;;12.70;99.90;;;;;;5123409;27;20030;-59
2023/03/24 17:40:45;;;;;;;3.95;2.60;;;12.60;99.90;;;;;;5134603;27;20019;-60
2023/03/24 17:43:11;;;;;;;9.95;3.70;;;12.60;99.90;;;;;;5133661;27;20034;-61
2023/03/24 17:45:39;;;;;;;10.13;5.90;;;12.50;99.90;;;;;;5113465;27;20026;-58
2023/03/24 17:48:05;;;;;;;8.25;6.13;;;12.40;99.90;;;;;;5132078;27;20021;-57
2023/03/24 17:50:30;;;;;;;9.60;6.82;;;12.40;99.90;;;;;;5132301;27;20084;-59
2023/03/24 17:52:56;;;;;;;10.65;7.63;;;12.30;99.90;;;;;;5130100;27;20527;-59
2023/03/24 17:55:22;;;;;;;10.18;6.60;;;12.30;99.90;;;;;;5129827;27;20042;-56
2023/03/24 17:57:47;;;;;;;7.80;6.03;;;12.30;99.90;;;;;;5131625;27;20464;-58
2023/03/24 18:00:15;;;;;;;9.10;5.18;;;12.30;99.90;;;;;;5131395;27;20034;-59
2023/03/24 18:02:42;;;;;;;9.20;5.20;;;12.30;99.90;;;;;;5129971;27;20031;-59
2023/03/24 18:05:10;;;;;;;6.07;3.60;;;12.20;99.90;;;;;;5131624;27;20428;-59
2023/03/24 18:07:37;;;;;;;6.97;3.85;;;12.20;99.90;;;;;;5130688;27;20051;-58
2023/03/24 18:10:04;;;;;;;9.90;6.38;;;12.20;99.90;;;;;;5111444;28;20024;-59
2023/03/24 18:12:29;;;;;;;9.27;5.80;;;12.10;99.90;;;;;;5076147;28;20024;-60
2023/03/24 18:14:55;;;;;;;7.95;4.68;;;12.10;99.90;;;;;;5110614;28;20099;-58
2023/03/24 18:17:21;;;;;;;6.80;3.92;;;12.20;99.90;;;;;;5093671;28;20153;-58
2023/03/24 18:19:47;;;;;;;6.90;3.38;;;12.20;99.90;;;;;;5092629;28;20548;-59
2023/03/24 18:22:12;;;;;;;5.65;2.80;;;12.20;99.90;;;;;;5115252;27;20087;-59
2023/03/24 18:24:38;;;;;;;7.43;3.88;;;12.10;99.90;;;;;;5094356;28;20031;-59
2023/03/24 18:27:08;;;;;;;7.85;4.60;;;12.00;99.90;;;;;;5096258;28;20061;-59
2023/03/24 18:29:37;;;;;;;7.13;4.03;;;12.00;99.90;;;;;;5091852;28;20027;-58
2023/03/24 18:32:04;;;;;;;7.80;3.35;;;11.90;99.90;;;;;;5109658;28;20076;-60
2023/03/24 18:34:30;;;;;;;6.85;2.35;;;11.80;99.90;;;;;;5110003;27;20067;-59
2023/03/24 18:36:57;;;;;;;4.03;2.10;;;11.70;99.90;;;;;;5092028;28;20046;-58
2023/03/24 18:39:22;;;;;;;6.45;1.73;;;11.60;99.90;;;;;;5090940;27;20099;-58
2023/03/24 18:41:48;;;;;;;5.93;2.00;;;11.60;99.90;;;;;;5110250;27;20550;-60
2023/03/24 18:44:14;;;;;;;6.65;2.22;;;11.50;99.90;;;;;;5109167;28;20487;-59
2023/03/24 18:46:41;;;;;;;4.78;2.03;;;11.50;99.90;;;;;;5110556;27;20024;-57
2023/03/24 18:49:12;;;;;;;4.85;1.77;;;11.40;99.90;;;;;;5108424;28;20023;-57
2023/03/24 18:51:38;;;;;;;5.28;2.20;;;11.40;99.90;;;;;;5110741;28;20031;-60
2023/03/24 18:54:05;;;;;;;5.10;2.58;;;11.30;99.90;;;;;;5109472;28;20031;-59
2023/03/24 18:56:30;;;;;;;4.40;2.10;;;11.30;99.90;;;;;;5109329;28;20024;-58
2023/03/24 18:58:56;;;;;;;5.32;1.95;;;11.30;99.90;;;;;;5109288;28;20072;-59
2023/03/24 19:01:22;;;;;;;5.97;2.00;;;11.20;99.90;;;;;;5109733;28;20033;-61
2023/03/24 19:03:48;;;;;;;2.72;1.52;;;11.20;99.90;;;;;;5091822;28;20027;-59
2023/03/24 19:06:15;;;;;;;4.45;1.88;;;11.20;99.90;;;;;;5110113;28;20030;-57
2023/03/24 19:08:44;;;;;;;4.53;2.53;;;11.20;99.90;;;;;;5117216;27;20014;-58
2023/03/24 19:11:11;;;;;;;7.78;2.65;;;11.20;99.90;;;;;;5129471;27;20031;-60
2023/03/24 19:13:37;;;;;;;9.20;3.60;;;11.20;99.90;;;;;;5114444;27;20063;-59
2023/03/24 19:16:04;;;;;;;10.35;4.20;;;11.20;99.90;;;;;;5121674;27;20464;-54
2023/03/24 19:18:30;;;;;;;9.55;3.35;;;11.20;99.90;;;;;;5094023;28;20039;-57
2023/03/24 19:20:57;;;;;;;6.88;1.52;;;11.30;99.90;;;;;;5109436;28;20019;-59
2023/03/24 19:23:24;;;;;;;7.03;1.83;;;11.40;99.90;;;;;;5109055;28;20579;-59
2023/03/24 19:25:53;;;;;;;5.15;1.77;;;11.40;99.90;;;;;;5109257;28;20031;-59
2023/03/24 19:28:23;;;;;;;4.75;1.75;;;11.50;99.90;;;;;;5111058;28;20032;-58
2023/03/24 19:30:49;;;;;;;4.85;1.70;;;11.60;99.90;;;;;;5119254;28;20631;-58
2023/03/24 19:33:15;;;;;;;5.57;1.40;;;11.60;99.90;;;;;;5122581;28;20073;-58
2023/03/24 19:35:41;;;;;;;3.50;1.50;;;11.60;99.90;;;;;;5109785;28;20027;-59
2023/03/24 19:38:06;;;;;;;5.50;1.75;;;11.60;99.90;;;;;;5109132;28;20023;-60
2023/03/24 19:40:33;;;;;;;4.20;1.50;;;11.50;99.90;;;;;;5109706;28;20051;-59
2023/03/24 19:43:00;;;;;;;2.55;1.10;;;11.50;99.90;;;;;;5110312;28;20544;-58
2023/03/24 19:45:25;;;;;;;2.55;1.17;;;11.50;99.90;;;;;;5115122;27;20487;-60
2023/03/24 19:47:51;;;;;;;4.82;1.50;;;11.50;99.90;;;;;;5114191;28;20103;-59
2023/03/24 19:50:17;;;;;;;1.88;1.00;;;11.40;99.90;;;;;;5113741;27;20365;-58
2023/03/24 19:52:44;;;;;;;2.25;1.40;;;11.30;99.90;;;;;;5097552;27;20031;-58
2023/03/24 19:55:13;;;;;;;4.30;1.40;;;11.20;99.90;;;;;;5132157;27;20055;-59
2023/03/24 19:57:39;;;;;;;2.13;1.20;;;11.10;99.90;;;;;;5106106;27;20029;-60
2023/03/24 20:00:08;;;;;;;4.70;1.75;;;11.00;99.90;;;;;;5123138;27;20069;-59
2023/03/24 20:02:35;;;;;;;4.50;2.25;;;10.90;99.90;;;;;;5106220;27;20092;-59
2023/03/24 20:05:01;;;;;;;4.80;1.95;;;10.90;99.90;;;;;;5122593;27;20038;-59
2023/03/24 20:07:27;;;;;;;4.97;1.40;;;10.80;99.90;;;;;;5121768;27;20106;-59
2023/03/24 20:09:53;;;;;;;3.13;1.67;;;10.70;99.90;;;;;;5105630;27;20023;-59
2023/03/24 20:12:18;;;;;;;4.22;2.13;;;10.70;99.90;;;;;;5122445;27;20026;-60
2023/03/24 20:14:44;;;;;;;4.05;1.77;;;10.60;99.90;;;;;;5121964;27;20019;-60
2023/03/24 20:17:18;;;;;;;5.00;1.77;;;10.50;99.90;;;;;;5122049;27;20129;-58
2023/03/24 20:19:44;;;;;;;3.60;1.83;;;10.50;99.90;;;;;;5120217;27;20027;-59
2023/03/24 20:22:10;;;;;;;4.90;1.73;;;10.50;99.90;;;;;;5120747;27;20388;-59
2023/03/24 20:24:37;;;;;;;5.10;1.70;;;10.40;99.90;;;;;;5105854;27;20021;-59
2023/03/24 20:27:04;;;;;;;4.15;1.70;;;10.40;99.90;;;;;;5124014;27;20031;-60
2023/03/24 20:29:30;;;;;;;3.47;1.65;;;10.30;99.90;;;;;;5124445;27;20019;-60
2023/03/24 20:31:56;;;;;;;3.28;1.63;;;10.30;99.90;;;;;;5123106;27;20027;-59
2023/03/24 20:34:22;;;;;;;5.55;1.88;;;10.30;99.90;;;;;;5120334;27;20031;-58
2023/03/24 20:36:48;;;;;;;3.38;1.73;;;10.30;99.90;;;;;;5123856;27;20053;-60
2023/03/24 20:39:14;;;;;;;4.25;1.83;;;10.30;99.90;;;;;;5121722;27;20027;-60
2023/03/24 20:41:40;;;;;;;2.97;1.70;;;10.20;99.90;;;;;;5119827;27;20049;-62
2023/03/24 20:44:06;;;;;;;4.28;1.70;;;10.20;99.90;;;;;;5124966;27;20539;-59
2023/03/24 20:46:32;;;;;;;3.95;2.08;;;10.10;99.90;;;;;;5123540;27;20090;-59
2023/03/24 20:48:57;;;;;;;5.68;2.22;;;10.10;99.90;;;;;;5109021;27;20106;-59
2023/03/24 20:51:23;;;;;;;3.50;1.50;;;10.10;99.90;;;;;;5118108;27;20115;-60
2023/03/24 20:53:49;;;;;;;5.15;2.20;;;10.10;99.90;;;;;;5111742;27;20379;-62
2023/03/24 20:56:17;;;;;;;5.57;2.00;;;10.10;99.90;;;;;;5115291;27;20384;-60
